Atlantic Beach, North Carolina
Current Conditions -  °F | °C
As of 11:58 PM on Saturday 22 Nov 2014 (Local Time) from KMRH Reporting Station
Clear Clear  
Wind Chill: 42°   Ceiling: Unl
Heat Index: 45°   Visibility: 10mi
Dew Point: 35°   Wind: 6mph
Humidity: 68%   Direction: 70°ENE
Pressure: 30.34"   Gusts: NA
Location:  34.7°N, 76.74°W
Report Text: KMRH 230458Z AUTO 07005KT 10SM CLR 07/02 A3034 RMK AO2 SLP273 T00720017 401500000 TSNO
Loading
Personal Weather Stations






























Interactive Weather Map New forecast layout! Learn more

10-Day Weather Forecast

Advertisements
Track Severe Weather on mobile